Time;durP1;ratioP1;P1;durP2;ratioP2;P2;SDS_P1;SDS_P2;PMS_P1;PMS_P2;Temp;Humidity;BMP_temperature;BMP_pressure;BME280_temperature;BME280_humidity;BME280_pressure;Samples;Min_cycle;Max_cycle;Signal;HPM_P1;HPM_P2
2021/03/02 00:02:01;;;;;;;14.17;12.50;;;;;;;-0.48;95.07;99530.44;5009942;28;20616;-68
2021/03/02 00:04:29;;;;;;;17.10;12.57;;;;;;;-0.42;94.32;99532.81;5010278;28;20545;-68
2021/03/02 00:06:57;;;;;;;13.67;11.73;;;;;;;-0.46;93.51;99533.84;5011953;28;20251;-68
2021/03/02 00:09:24;;;;;;;13.90;11.47;;;;;;;-0.57;94.11;99534.22;5008387;28;20212;-68
2021/03/02 00:11:52;;;;;;;19.10;12.00;;;;;;;-0.46;93.76;99534.66;5010535;28;20497;-68
2021/03/02 00:14:20;;;;;;;12.33;10.40;;;;;;;-0.53;94.21;99529.75;5009027;28;20200;-68
2021/03/02 00:16:56;;;;;;;15.20;12.47;;;;;;;-0.57;94.85;99535.94;5012763;28;20251;-68
2021/03/02 00:19:28;;;;;;;13.80;10.50;;;;;;;-0.82;94.95;99529.03;5007432;28;20228;-68
2021/03/02 00:22:03;;;;;;;13.37;10.33;;;;;;;-0.88;95.63;99536.16;5010962;28;20201;-69
2021/03/02 00:24:33;;;;;;;14.23;11.13;;;;;;;-0.89;97.49;99531.00;5014025;28;20200;-68
2021/03/02 00:27:00;;;;;;;13.00;11.17;;;;;;;-1.05;98.11;99535.88;5011393;28;20221;-68
2021/03/02 00:29:27;;;;;;;13.33;11.40;;;;;;;-1.04;97.84;99535.84;5014050;28;20196;-69
2021/03/02 00:31:56;;;;;;;13.70;11.43;;;;;;;-1.17;97.80;99534.53;5009071;28;20209;-69
2021/03/02 00:34:23;;;;;;;13.23;10.70;;;;;;;-1.21;99.05;99543.34;5004420;28;20452;-68
2021/03/02 00:36:50;;;;;;;11.73;10.53;;;;;;;-1.13;98.46;99537.91;5007107;28;20771;-68
2021/03/02 00:39:18;;;;;;;12.60;11.27;;;;;;;-1.25;97.36;99540.00;5010837;28;20221;-69
2021/03/02 00:41:45;;;;;;;12.33;11.10;;;;;;;-1.23;97.56;99543.41;5008616;28;20596;-68
2021/03/02 00:44:12;;;;;;;14.33;11.30;;;;;;;-1.20;97.69;99543.31;5006054;28;20690;-69
2021/03/02 00:46:39;;;;;;;12.63;11.27;;;;;;;-1.15;98.63;99540.53;5004824;28;20232;-69
2021/03/02 00:49:06;;;;;;;12.70;10.57;;;;;;;-1.15;98.11;99544.91;5012347;28;20204;-69
2021/03/02 00:51:33;;;;;;;12.07;9.93;;;;;;;-1.33;98.75;99540.25;5014856;28;20205;-68
2021/03/02 00:54:01;;;;;;;13.47;10.87;;;;;;;-1.41;97.98;99542.28;5013761;28;20435;-68
2021/03/02 00:56:29;;;;;;;14.30;11.30;;;;;;;-1.24;97.42;99536.50;5011094;28;20225;-68
2021/03/02 00:58:56;;;;;;;16.93;11.10;;;;;;;-1.28;97.51;99541.84;5009616;28;20624;-68
2021/03/02 01:01:23;;;;;;;12.83;10.13;;;;;;;-1.24;97.69;99539.13;5013077;28;20295;-68
2021/03/02 01:03:50;;;;;;;11.90;10.53;;;;;;;-1.33;96.50;99544.59;5010875;28;20209;-68
2021/03/02 01:06:20;;;;;;;13.83;11.27;;;;;;;-1.43;97.53;99544.06;5011650;28;20245;-69
2021/03/02 01:08:50;;;;;;;11.83;10.37;;;;;;;-1.48;98.75;99536.41;5019202;28;20348;-68
2021/03/02 01:11:17;;;;;;;13.83;10.70;;;;;;;-1.43;98.67;99540.59;5011568;28;20212;-69
2021/03/02 01:13:46;;;;;;;13.73;10.57;;;;;;;-1.47;97.90;99538.09;5018250;28;20209;-68
2021/03/02 01:16:13;;;;;;;12.10;10.80;;;;;;;-1.54;97.90;99531.41;5011273;28;20645;-68
2021/03/02 01:18:41;;;;;;;12.07;10.77;;;;;;;-1.53;97.23;99533.09;5011780;28;20751;-68
2021/03/02 01:21:08;;;;;;;11.50;9.93;;;;;;;-1.68;98.18;99533.63;5013087;28;20240;-68
2021/03/02 01:23:35;;;;;;;13.17;10.80;;;;;;;-1.70;99.12;99527.63;5011086;28;20538;-68
2021/03/02 01:26:02;;;;;;;12.10;10.83;;;;;;;-1.73;99.61;99523.34;5013224;28;20788;-67
2021/03/02 01:28:29;;;;;;;12.40;11.10;;;;;;;-1.77;99.29;99519.97;5012853;28;20204;-69
2021/03/02 01:30:57;;;;;;;13.40;10.63;;;;;;;-1.82;99.69;99524.47;5010642;28;20216;-69
2021/03/02 01:33:24;;;;;;;13.07;10.03;;;;;;;-1.82;99.71;99521.88;5013029;28;20752;-69
2021/03/02 01:35:52;;;;;;;13.50;11.30;;;;;;;-1.97;100.00;99518.00;5008719;28;20229;-68
2021/03/02 01:38:19;;;;;;;14.43;11.33;;;;;;;-1.94;100.00;99520.50;5016370;28;20212;-68
2021/03/02 01:40:46;;;;;;;12.43;10.33;;;;;;;-1.94;100.00;99517.06;5013548;28;20235;-68
2021/03/02 01:43:33;;;;;;;14.03;10.67;;;;;;;-2.04;100.00;99517.34;5010373;28;20266;-69
2021/03/02 01:46:01;;;;;;;12.63;10.03;;;;;;;-2.14;100.00;99508.13;5012234;28;20825;-67
2021/03/02 01:48:28;;;;;;;11.93;10.73;;;;;;;-2.15;100.00;99516.81;5010903;28;20304;-68
2021/03/02 01:50:55;;;;;;;14.03;11.13;;;;;;;-2.17;100.00;99522.97;5014877;28;20218;-68
2021/03/02 01:53:22;;;;;;;12.40;10.67;;;;;;;-2.25;100.00;99518.84;5011272;28;20292;-68
2021/03/02 01:55:49;;;;;;;14.87;11.53;;;;;;;-2.22;100.00;99517.91;5009631;28;20235;-70
2021/03/02 01:58:16;;;;;;;12.63;10.43;;;;;;;-2.21;100.00;99517.00;5014522;28;20564;-69
2021/03/02 02:00:44;;;;;;;13.00;11.40;;;;;;;-2.31;100.00;99523.38;5014340;28;20396;-69
2021/03/02 02:03:23;;;;;;;12.87;10.70;;;;;;;-2.39;100.00;99516.66;5011080;28;20215;-68
2021/03/02 02:05:54;;;;;;;11.50;10.07;;;;;;;-2.30;100.00;99525.06;5011965;28;20627;-68
2021/03/02 02:08:26;;;;;;;14.23;11.93;;;;;;;-2.34;100.00;99517.38;5013392;28;20205;-69
2021/03/02 02:10:57;;;;;;;13.80;11.33;;;;;;;-2.29;100.00;99522.41;5007882;28;20726;-68
2021/03/02 02:13:29;;;;;;;15.10;11.13;;;;;;;-2.37;100.00;99517.47;5011476;28;20204;-68
2021/03/02 02:15:58;;;;;;;13.17;10.53;;;;;;;-2.31;100.00;99523.38;5007843;28;20233;-68
2021/03/02 02:18:29;;;;;;;14.90;11.33;;;;;;;-2.37;100.00;99514.00;5010472;28;20208;-68
2021/03/02 02:21:04;;;;;;;13.83;10.13;;;;;;;-2.31;100.00;99511.22;5003745;28;20549;-68
2021/03/02 02:23:40;;;;;;;16.50;11.17;;;;;;;-2.40;100.00;99507.16;5009397;28;20219;-69
2021/03/02 02:26:18;;;;;;;12.37;10.83;;;;;;;-2.47;100.00;99514.28;5009787;28;20261;-68
2021/03/02 02:28:48;;;;;;;14.43;10.83;;;;;;;-2.52;100.00;99510.09;5010224;28;20597;-68
2021/03/02 02:31:16;;;;;;;15.80;10.90;;;;;;;-2.53;100.00;99505.81;5013006;28;20239;-68
2021/03/02 02:33:44;;;;;;;14.03;10.70;;;;;;;-2.44;100.00;99502.09;5010523;28;20808;-67
2021/03/02 02:36:14;;;;;;;15.07;10.57;;;;;;;-2.46;100.00;99499.56;5003869;28;20318;-68
2021/03/02 02:38:43;;;;;;;15.43;11.27;;;;;;;-2.56;100.00;99504.16;5010844;28;20221;-68
2021/03/02 02:41:10;;;;;;;11.77;10.57;;;;;;;-2.68;100.00;99497.56;5008463;28;20232;-69
2021/03/02 02:43:38;;;;;;;10.97;9.87;;;;;;;-2.73;100.00;99496.84;5008909;28;20208;-69
2021/03/02 02:46:07;;;;;;;12.87;10.97;;;;;;;-2.72;100.00;99502.88;5007997;28;20221;-68
2021/03/02 02:48:34;;;;;;;13.40;11.33;;;;;;;-2.71;100.00;99496.78;5012946;28;20453;-68
2021/03/02 02:51:02;;;;;;;15.17;11.27;;;;;;;-2.79;100.00;99495.28;5009418;28;20661;-69
2021/03/02 02:53:30;;;;;;;12.57;11.27;;;;;;;-2.84;100.00;99504.06;5013631;28;20208;-69
2021/03/02 02:55:59;;;;;;;16.43;12.57;;;;;;;-2.87;100.00;99504.16;5003566;28;20260;-68
2021/03/02 02:58:31;;;;;;;13.47;12.07;;;;;;;-2.87;100.00;99499.81;5004497;28;20205;-68
2021/03/02 03:01:02;;;;;;;16.90;11.83;;;;;;;-2.90;100.00;99494.72;5008839;28;20217;-69
2021/03/02 03:03:31;;;;;;;12.90;10.63;;;;;;;-2.84;100.00;99510.13;5005431;28;20205;-68
2021/03/02 03:06:01;;;;;;;11.67;10.40;;;;;;;-2.85;100.00;99494.56;5003544;28;20260;-67
2021/03/02 03:08:30;;;;;;;12.47;9.93;;;;;;;-2.93;100.00;99500.84;5011374;28;20204;-69
2021/03/02 03:10:58;;;;;;;13.17;10.50;;;;;;;-2.99;100.00;99497.56;5008964;28;20212;-68
2021/03/02 03:13:27;;;;;;;13.87;10.33;;;;;;;-3.07;100.00;99497.78;5005275;28;20768;-69
2021/03/02 03:15:56;;;;;;;15.03;10.77;;;;;;;-2.98;100.00;99499.28;5007786;28;20225;-68
2021/03/02 03:18:26;;;;;;;13.77;10.80;;;;;;;-3.08;100.00;99509.03;5007316;28;20212;-69
2021/03/02 03:20:57;;;;;;;13.10;11.03;;;;;;;-3.00;100.00;99509.69;5006645;28;20224;-69
2021/03/02 03:23:25;;;;;;;13.73;11.13;;;;;;;-3.06;100.00;99510.69;5003190;28;20593;-68
2021/03/02 03:25:52;;;;;;;11.90;10.70;;;;;;;-3.10;100.00;99508.22;5004741;28;20229;-69
2021/03/02 03:28:21;;;;;;;14.27;9.73;;;;;;;-3.20;100.00;99512.78;5006342;28;20215;-68
2021/03/02 03:30:48;;;;;;;12.27;10.47;;;;;;;-3.22;100.00;99512.84;5008848;28;20208;-68
2021/03/02 03:33:16;;;;;;;11.67;9.37;;;;;;;-3.21;100.00;99506.78;5013995;28;20691;-68
2021/03/02 03:35:44;;;;;;;12.30;10.00;;;;;;;-3.27;100.00;99512.09;5010012;28;20307;-69
2021/03/02 03:38:12;;;;;;;16.57;11.17;;;;;;;-3.31;100.00;99509.63;5015937;28;20220;-69
2021/03/02 03:40:39;;;;;;;12.17;10.20;;;;;;;-3.30;100.00;99512.16;5005094;28;20236;-69
2021/03/02 03:43:06;;;;;;;12.67;10.57;;;;;;;-3.37;100.00;99519.28;5010396;28;20212;-68
2021/03/02 03:45:34;;;;;;;13.37;10.80;;;;;;;-3.43;100.00;99516.81;5007607;28;20204;-69
2021/03/02 03:48:01;;;;;;;12.33;11.13;;;;;;;-3.35;100.00;99514.03;5007390;28;20212;-69
2021/03/02 03:50:28;;;;;;;13.17;11.50;;;;;;;-3.38;100.00;99520.16;5010327;28;20201;-68
2021/03/02 03:52:58;;;;;;;14.30;11.57;;;;;;;-3.29;100.00;99516.47;5006240;28;20639;-69
2021/03/02 03:55:31;;;;;;;14.33;11.33;;;;;;;-3.33;100.00;99514.84;4990454;28;20201;-67
2021/03/02 03:57:58;;;;;;;12.70;10.43;;;;;;;-3.40;100.00;99508.97;5004653;28;20200;-68
2021/03/02 04:00:26;;;;;;;12.30;11.00;;;;;;;-3.43;100.00;99521.16;5004703;28;20320;-68
2021/03/02 04:02:53;;;;;;;15.67;11.30;;;;;;;-3.52;100.00;99517.91;5005022;28;20232;-68
2021/03/02 04:05:21;;;;;;;12.30;10.27;;;;;;;-3.53;100.00;99518.81;5003121;28;20300;-69
2021/03/02 04:07:48;;;;;;;12.13;9.83;;;;;;;-3.58;100.00;99523.25;5002354;28;20212;-68
2021/03/02 04:10:16;;;;;;;11.10;9.67;;;;;;;-3.55;100.00;99519.72;5004099;28;20676;-68
2021/03/02 04:12:44;;;;;;;14.20;10.40;;;;;;;-3.63;100.00;99518.16;5005872;28;20208;-69
2021/03/02 04:15:27;;;;;;;11.17;9.63;;;;;;;-3.64;100.00;99518.19;5002549;28;20344;-69
2021/03/02 04:17:57;;;;;;;13.50;10.33;;;;;;;-3.66;100.00;99518.25;5002765;28;20212;-69
2021/03/02 04:20:24;;;;;;;12.47;10.50;;;;;;;-3.71;100.00;99520.09;5014616;28;20224;-68
2021/03/02 04:22:52;;;;;;;11.17;9.17;;;;;;;-3.67;100.00;99526.03;5011183;28;20392;-68
2021/03/02 04:25:19;;;;;;;13.10;10.43;;;;;;;-3.69;100.00;99517.44;5005685;28;20204;-68
2021/03/02 04:27:47;;;;;;;13.77;10.70;;;;;;;-3.74;100.00;99520.16;5001436;28;20216;-69
2021/03/02 04:30:15;;;;;;;11.63;10.40;;;;;;;-3.59;100.00;99518.09;5004069;28;20232;-68
2021/03/02 04:32:42;;;;;;;11.87;10.20;;;;;;;-3.49;100.00;99528.19;5004254;28;20219;-68
2021/03/02 04:35:10;;;;;;;13.10;10.60;;;;;;;-3.61;100.00;99522.47;5008042;28;20576;-68
2021/03/02 04:37:38;;;;;;;16.07;11.40;;;;;;;-3.61;100.00;99527.63;5012273;28;20255;-69
2021/03/02 04:40:06;;;;;;;16.63;11.30;;;;;;;-3.68;100.00;99530.38;5009656;28;20256;-69
2021/03/02 04:42:33;;;;;;;15.17;10.90;;;;;;;-3.75;100.00;99522.78;5005345;28;20205;-69
2021/03/02 04:45:01;;;;;;;13.37;11.33;;;;;;;-3.70;100.00;99528.69;5003976;28;20213;-67
2021/03/02 04:47:29;;;;;;;13.33;10.93;;;;;;;-3.74;100.00;99527.06;5003180;28;20331;-68
2021/03/02 04:49:56;;;;;;;10.23;9.23;;;;;;;-3.79;100.00;99522.84;5009120;28;20299;-68
2021/03/02 04:52:23;;;;;;;12.53;10.23;;;;;;;-3.82;100.00;99528.09;5001609;28;20209;-68
2021/03/02 04:54:50;;;;;;;13.73;11.10;;;;;;;-3.90;100.00;99532.63;5001137;28;20267;-69
2021/03/02 04:57:17;;;;;;;12.43;11.17;;;;;;;-3.90;100.00;99534.34;5002520;28;20641;-69
2021/03/02 04:59:44;;;;;;;13.53;11.23;;;;;;;-3.89;100.00;99536.03;5003232;28;20231;-69
2021/03/02 05:02:12;;;;;;;13.47;10.37;;;;;;;-3.93;100.00;99537.88;5004091;28;20216;-70
2021/03/02 05:04:39;;;;;;;12.73;10.67;;;;;;;-3.93;100.00;99536.13;5004980;28;20220;-69
2021/03/02 05:07:06;;;;;;;12.43;10.47;;;;;;;-3.84;100.00;99536.78;5006345;28;20872;-69
2021/03/02 05:09:33;;;;;;;12.10;10.73;;;;;;;-3.87;100.00;99536.88;5005711;28;20593;-69
2021/03/02 05:12:00;;;;;;;12.90;11.50;;;;;;;-3.89;100.00;99538.63;5012624;28;20215;-68
2021/03/02 05:14:27;;;;;;;11.80;10.60;;;;;;;-3.93;100.00;99528.34;5011932;28;20236;-69
2021/03/02 05:16:54;;;;;;;11.70;9.93;;;;;;;-3.96;100.00;99530.16;5015482;28;20229;-69
2021/03/02 05:19:22;;;;;;;13.20;10.50;;;;;;;-3.98;100.00;99524.16;5015695;28;20327;-69
2021/03/02 05:21:49;;;;;;;15.00;11.67;;;;;;;-4.04;100.00;99525.16;5011078;28;20308;-68
2021/03/02 05:24:16;;;;;;;13.80;10.40;;;;;;;-4.06;100.00;99532.09;5008068;28;20647;-69
2021/03/02 05:26:43;;;;;;;13.23;10.20;;;;;;;-4.08;100.00;99529.53;5010562;28;20324;-67
2021/03/02 05:29:10;;;;;;;12.27;10.30;;;;;;;-4.10;100.00;99525.28;5016854;28;20215;-68
2021/03/02 05:31:37;;;;;;;14.20;10.90;;;;;;;-4.07;100.00;99530.41;5004189;28;20225;-68
2021/03/02 05:34:05;;;;;;;12.13;10.67;;;;;;;-4.11;100.00;99528.78;5002934;28;20749;-67
2021/03/02 05:36:33;;;;;;;11.73;10.23;;;;;;;-4.09;100.00;99521.81;5001534;28;20790;-69
2021/03/02 05:39:01;;;;;;;10.83;9.67;;;;;;;-4.12;100.00;99521.88;5006873;28;20213;-68
2021/03/02 05:41:28;;;;;;;11.60;10.40;;;;;;;-4.11;100.00;99521.84;5006306;28;20232;-70
2021/03/02 05:43:55;;;;;;;14.63;11.10;;;;;;;-4.04;100.00;99532.06;5001061;28;20205;-71
2021/03/02 05:46:33;;;;;;;14.47;12.33;;;;;;;-4.00;100.00;99531.09;5006694;28;20713;-70
2021/03/02 05:49:00;;;;;;;17.40;11.57;;;;;;;-4.02;100.00;99536.34;5007333;28;20220;-69
2021/03/02 05:51:27;;;;;;;15.50;11.73;;;;;;;-3.96;100.00;99538.78;5012326;28;20257;-69
2021/03/02 05:53:55;;;;;;;14.47;9.97;;;;;;;-4.01;100.00;99537.16;5005722;28;20209;-67
2021/03/02 05:56:47;;;;;;;16.27;11.63;;;;;;;-4.06;100.00;99534.69;5002427;28;20660;-69
2021/03/02 05:59:14;;;;;;;13.97;10.57;;;;;;;-4.04;100.00;99526.88;5012353;28;20213;-68
2021/03/02 06:01:41;;;;;;;15.43;11.07;;;;;;;-4.03;100.00;99526.84;5006047;28;20256;-69
2021/03/02 06:04:14;;;;;;;12.87;11.03;;;;;;;-4.09;100.00;99530.41;5009818;28;20229;-69
2021/03/02 06:06:41;;;;;;;14.00;11.43;;;;;;;-4.11;100.00;99531.38;5007361;28;20229;-69
2021/03/02 06:09:09;;;;;;;13.10;10.80;;;;;;;-4.05;100.00;99530.34;5009668;28;20209;-70
2021/03/02 06:11:37;;;;;;;13.53;10.83;;;;;;;-4.05;100.00;99538.13;5012849;28;20228;-73
2021/03/02 06:14:21;;;;;;;13.20;11.37;;;;;;;-4.07;100.00;99538.19;5009050;28;20658;-71
2021/03/02 06:16:56;;;;;;;16.27;11.20;;;;;;;-4.03;100.00;99544.13;5004617;28;20311;-69
2021/03/02 06:19:41;;;;;;;13.03;11.00;;;;;;;-3.95;100.00;99545.66;5008487;28;20212;-70
2021/03/02 06:22:08;;;;;;;16.43;12.30;;;;;;;-3.96;100.00;99537.94;5006013;28;20212;-69
2021/03/02 06:24:46;;;;;;;14.80;12.10;;;;;;;-3.90;100.00;99542.97;5011592;28;20741;-70
2021/03/02 06:27:14;;;;;;;19.27;14.50;;;;;;;-3.74;100.00;99546.06;5011313;28;20236;-70
2021/03/02 06:29:41;;;;;;;15.70;14.10;;;;;;;-3.71;100.00;99547.72;5010237;28;20701;-71
2021/03/02 06:32:09;;;;;;;16.43;13.83;;;;;;;-3.69;100.00;99535.59;5007699;28;20209;-71
2021/03/02 06:34:36;;;;;;;21.60;13.27;;;;;;;-3.61;100.00;99549.22;5008304;28;20307;-68
2021/03/02 06:37:05;;;;;;;20.23;15.03;;;;;;;-3.55;100.00;99551.69;5008953;28;20251;-69
2021/03/02 06:39:33;;;;;;;19.70;13.37;;;;;;;-3.52;100.00;99549.00;5010151;28;20206;-70
2021/03/02 06:42:15;;;;;;;14.10;12.70;;;;;;;-3.36;100.00;99559.00;5009511;28;20546;-68
2021/03/02 06:44:44;;;;;;;15.57;11.53;;;;;;;-3.36;100.00;99559.88;5004544;28;20204;-70
2021/03/02 06:47:30;;;;;;;15.23;13.63;;;;;;;-3.25;100.00;99563.94;5013460;28;20228;-70
2021/03/02 06:49:59;;;;;;;14.13;12.17;;;;;;;-3.24;100.00;99563.88;5006771;28;20213;-70
2021/03/02 06:52:26;;;;;;;18.67;16.13;;;;;;;-3.22;100.00;99567.31;5006321;28;20209;-69
2021/03/02 06:54:53;;;;;;;18.77;17.03;;;;;;;-3.18;100.00;99565.47;5003919;28;20206;-70
2021/03/02 06:57:22;;;;;;;19.47;16.23;;;;;;;-3.10;100.00;99570.47;5008142;28;20220;-70
2021/03/02 06:59:53;;;;;;;16.20;14.63;;;;;;;-3.05;100.00;99561.66;5006757;28;20231;-69
2021/03/02 07:02:34;;;;;;;15.60;14.00;;;;;;;-2.98;100.00;99564.97;5005498;28;20216;-69
2021/03/02 07:05:10;;;;;;;15.47;13.73;;;;;;;-2.87;100.00;99571.59;5000766;28;20304;-71
2021/03/02 07:07:37;;;;;;;16.57;13.53;;;;;;;-2.82;100.00;99573.19;5003313;28;20707;-70
2021/03/02 07:10:05;;;;;;;16.70;12.30;;;;;;;-2.64;100.00;99573.63;5006292;28;20208;-69
2021/03/02 07:12:36;;;;;;;15.47;12.40;;;;;;;-2.56;100.00;99584.63;5004062;28;20220;-72
2021/03/02 07:15:06;;;;;;;17.60;13.63;;;;;;;-2.45;100.00;99584.34;5008884;28;20379;-69
2021/03/02 07:17:35;;;;;;;16.97;14.03;;;;;;;-2.39;100.00;99588.50;5011456;28;20228;-69
2021/03/02 07:20:04;;;;;;;17.30;13.27;;;;;;;-2.27;100.00;99593.38;5005605;28;20320;-70
2021/03/02 07:22:31;;;;;;;16.87;12.63;;;;;;;-2.14;100.00;99593.00;5003410;28;20592;-70
2021/03/02 07:25:00;;;;;;;15.73;14.10;;;;;;;-2.04;100.00;99595.31;5007750;28;20220;-69
2021/03/02 07:27:28;;;;;;;17.27;13.97;;;;;;;-1.92;100.00;99594.06;5009366;28;20227;-71
2021/03/02 07:29:58;;;;;;;16.07;12.97;;;;;;;-1.77;100.00;99597.97;5011114;28;20215;-71
2021/03/02 07:32:26;;;;;;;15.20;11.60;;;;;;;-1.68;100.00;99596.84;5006876;28;20207;-71
2021/03/02 07:34:53;;;;;;;14.67;12.37;;;;;;;-1.54;100.00;99604.22;5008337;28;20212;-70
2021/03/02 07:37:21;;;;;;;14.50;12.97;;;;;;;-1.41;100.00;99599.47;5004740;28;20227;-70
2021/03/02 07:40:01;;;;;;;17.90;12.70;;;;;;;-1.20;100.00;99600.53;5005147;28;20204;-70
2021/03/02 07:42:28;;;;;;;18.90;12.93;;;;;;;-1.02;100.00;99606.03;5009036;28;20213;-69
2021/03/02 07:45:04;;;;;;;18.03;13.47;;;;;;;-0.83;100.00;99597.63;5002186;28;20216;-70
2021/03/02 07:47:53;;;;;;;17.07;14.27;;;;;;;-0.64;100.00;99610.84;5008102;28;20225;-69
2021/03/02 07:50:22;;;;;;;17.40;13.47;;;;;;;-0.42;100.00;99612.69;5006879;28;20222;-69
2021/03/02 07:52:51;;;;;;;15.37;13.53;;;;;;;-0.25;100.00;99612.97;5006928;28;20231;-69
2021/03/02 07:55:20;;;;;;;19.10;14.23;;;;;;;-0.08;100.00;99611.47;4999491;28;20312;-69
2021/03/02 07:57:48;;;;;;;16.97;14.17;;;;;;;0.14;100.00;99608.91;5009394;28;20232;-69
2021/03/02 08:00:28;;;;;;;21.73;15.80;;;;;;;0.40;99.84;99614.91;5010738;28;20704;-69
2021/03/02 08:03:29;;;;;;;22.50;16.83;;;;;;;0.66;98.88;99607.81;5003968;28;20223;-69
2021/03/02 08:05:58;;;;;;;21.63;17.73;;;;;;;0.86;98.32;99614.84;5005465;28;20228;-70
2021/03/02 08:08:33;;;;;;;22.87;16.47;;;;;;;0.95;96.77;99616.25;5008021;28;20636;-69
2021/03/02 08:11:01;;;;;;;26.53;17.03;;;;;;;1.06;96.67;99618.38;5005392;28;20204;-69
2021/03/02 08:13:32;;;;;;;25.67;17.23;;;;;;;1.25;94.70;99610.63;5004964;28;20238;-69
2021/03/02 08:16:00;;;;;;;23.20;17.80;;;;;;;1.38;93.55;99611.81;5009026;28;20225;-69
2021/03/02 08:18:29;;;;;;;25.70;18.43;;;;;;;1.64;92.56;99617.66;5003117;28;20205;-71
2021/03/02 08:21:11;;;;;;;25.07;18.07;;;;;;;1.67;92.18;99621.94;5010467;28;20232;-70
2021/03/02 08:23:52;;;;;;;26.20;18.23;;;;;;;2.06;90.45;99622.81;5004769;28;20205;-69
2021/03/02 08:26:27;;;;;;;26.47;19.03;;;;;;;2.21;88.91;99619.50;5008071;28;20226;-69
2021/03/02 08:29:12;;;;;;;21.77;18.13;;;;;;;2.18;88.94;99624.91;5005867;28;20216;-70
2021/03/02 08:31:41;;;;;;;22.97;18.30;;;;;;;2.39;88.13;99627.41;5007484;28;20288;-69
2021/03/02 08:34:11;;;;;;;27.67;18.10;;;;;;;2.43;88.38;99623.72;5009308;28;20197;-68
2021/03/02 08:36:38;;;;;;;20.23;17.80;;;;;;;2.65;86.91;99625.34;4998853;28;20232;-69
2021/03/02 08:39:10;;;;;;;24.17;18.10;;;;;;;2.71;86.34;99627.66;5000821;28;20209;-68
2021/03/02 08:41:39;;;;;;;20.93;17.10;;;;;;;2.98;86.45;99616.78;5003605;28;20233;-69
2021/03/02 08:44:16;;;;;;;25.07;17.00;;;;;;;3.22;83.42;99624.31;5001370;28;20233;-69
2021/03/02 08:46:43;;;;;;;23.67;17.90;;;;;;;3.32;83.38;99626.41;5001667;28;20247;-69
2021/03/02 08:49:12;;;;;;;21.93;17.13;;;;;;;3.45;82.26;99621.41;4999304;28;20269;-69
2021/03/02 08:51:39;;;;;;;22.67;16.80;;;;;;;3.51;81.51;99622.00;5002604;28;20680;-69
2021/03/02 08:54:07;;;;;;;23.53;17.33;;;;;;;3.53;81.88;99614.91;5002907;28;20271;-70
2021/03/02 08:56:34;;;;;;;26.60;17.07;;;;;;;3.65;81.97;99619.53;5000469;28;20562;-70
2021/03/02 08:59:06;;;;;;;24.53;17.30;;;;;;;3.87;81.45;99611.38;5012064;28;20215;-69
2021/03/02 09:01:34;;;;;;;24.40;19.23;;;;;;;4.04;80.55;99610.50;5007989;28;20232;-69
2021/03/02 09:04:10;;;;;;;24.27;17.30;;;;;;;4.16;79.93;99602.88;5007387;28;20209;-67
2021/03/02 09:06:38;;;;;;;25.53;18.20;;;;;;;4.38;78.28;99609.59;5005163;28;20707;-68
2021/03/02 09:09:07;;;;;;;24.10;17.87;;;;;;;4.35;78.73;99608.78;5007581;28;20205;-69
2021/03/02 09:11:36;;;;;;;22.43;17.27;;;;;;;4.54;77.37;99612.19;5014119;28;20207;-69
2021/03/02 09:14:04;;;;;;;25.27;18.07;;;;;;;4.52;77.39;99608.78;5008119;28;20569;-69
2021/03/02 09:16:34;;;;;;;25.13;17.93;;;;;;;4.56;77.25;99615.59;5006117;28;20237;-70
2021/03/02 09:19:23;;;;;;;27.70;17.70;;;;;;;4.74;76.31;99618.97;5010916;28;20663;-71
2021/03/02 09:22:00;;;;;;;22.13;17.67;;;;;;;4.82;75.62;99606.25;5009625;28;20693;-71
2021/03/02 09:24:40;;;;;;;22.53;17.33;;;;;;;5.10;74.41;99603.78;5009048;28;20538;-69
2021/03/02 09:27:08;;;;;;;23.17;16.33;;;;;;;5.10;74.01;99609.88;5011314;28;20232;-69
2021/03/02 09:29:36;;;;;;;25.50;16.83;;;;;;;5.39;72.45;99604.72;5007845;28;20209;-70
2021/03/02 09:32:05;;;;;;;25.40;18.07;;;;;;;5.52;72.22;99610.09;5011799;28;20208;-69
2021/03/02 09:34:34;;;;;;;22.67;16.97;;;;;;;5.71;71.27;99604.56;5011681;28;20406;-69
2021/03/02 09:37:04;;;;;;;23.30;17.53;;;;;;;5.58;71.11;99611.50;5011182;28;20396;-70
2021/03/02 09:39:31;;;;;;;22.03;15.67;;;;;;;5.76;70.18;99604.28;5007935;28;20697;-71
2021/03/02 09:41:58;;;;;;;21.40;15.67;;;;;;;5.76;69.56;99610.38;5006698;28;20243;-71
2021/03/02 09:44:30;;;;;;;26.13;16.87;;;;;;;6.00;69.35;99603.72;5002478;28;20669;-71
2021/03/02 09:47:00;;;;;;;21.33;17.33;;;;;;;6.11;68.89;99598.66;5005298;28;20611;-70
2021/03/02 09:49:37;;;;;;;22.43;16.90;;;;;;;6.31;67.38;99594.78;5004474;28;20235;-70
2021/03/02 09:52:05;;;;;;;25.20;15.60;;;;;;;6.34;67.84;99594.59;5006330;28;20211;-70
2021/03/02 09:54:32;;;;;;;18.87;15.07;;;;;;;6.49;67.19;99589.28;5005282;28;20201;-70
2021/03/02 09:57:01;;;;;;;21.43;16.53;;;;;;;6.76;65.80;99588.44;5005183;28;20228;-68
2021/03/02 09:59:29;;;;;;;22.97;16.10;;;;;;;6.69;66.02;99589.78;5008026;28;20596;-70
2021/03/02 10:01:56;;;;;;;22.63;16.80;;;;;;;6.81;65.47;99595.06;5006811;28;20259;-70
2021/03/02 10:04:24;;;;;;;19.10;15.87;;;;;;;6.79;65.94;99590.88;5009102;28;20240;-69
2021/03/02 10:06:52;;;;;;;24.23;16.70;;;;;;;6.96;64.35;99584.50;5007206;28;20228;-70
2021/03/02 10:09:23;;;;;;;20.70;15.27;;;;;;;7.32;64.60;99590.03;5012915;28;20207;-68
2021/03/02 10:12:09;;;;;;;17.57;14.70;;;;;;;7.51;61.56;99595.75;5007745;28;20202;-69
2021/03/02 10:14:38;;;;;;;18.23;15.30;;;;;;;7.44;61.60;99586.56;4999444;28;20201;-70
2021/03/02 10:17:05;;;;;;;25.97;15.33;;;;;;;7.55;62.29;99585.81;5003035;28;20236;-70
2021/03/02 10:19:46;;;;;;;21.23;15.37;;;;;;;7.82;60.99;99584.84;5012754;28;20200;-71
2021/03/02 10:22:14;;;;;;;21.93;15.00;;;;;;;8.00;60.16;99581.91;5006526;28;20220;-69
2021/03/02 10:24:42;;;;;;;18.67;14.57;;;;;;;8.13;57.10;99573.91;5009686;28;20979;-71
2021/03/02 10:27:11;;;;;;;17.63;12.93;;;;;;;8.23;59.40;99570.53;5008836;28;20713;-69
2021/03/02 10:29:38;;;;;;;18.53;13.97;;;;;;;8.48;56.75;99570.53;5006072;28;20212;-69
2021/03/02 10:32:06;;;;;;;19.07;14.40;;;;;;;8.48;56.45;99562.63;5015622;28;20557;-70
2021/03/02 10:34:35;;;;;;;16.47;14.07;;;;;;;8.39;56.40;99557.06;5011144;28;20211;-69
2021/03/02 10:37:05;;;;;;;16.37;12.27;;;;;;;8.68;57.14;99566.47;5008893;28;20462;-69
2021/03/02 10:39:34;;;;;;;12.97;9.97;;;;;;;9.03;54.70;99562.16;5007927;28;20334;-69
2021/03/02 10:42:02;;;;;;;10.70;9.60;;;;;;;9.34;52.41;99562.50;5012170;28;20225;-70
2021/03/02 10:44:29;;;;;;;11.43;10.23;;;;;;;9.34;53.74;99568.63;5009431;28;20205;-70
2021/03/02 10:46:56;;;;;;;13.20;11.00;;;;;;;9.75;52.77;99561.09;5007603;28;20240;-69
2021/03/02 10:49:23;;;;;;;11.30;9.80;;;;;;;9.83;52.79;99565.75;5005914;28;20239;-69
2021/03/02 10:51:53;;;;;;;14.07;11.03;;;;;;;9.90;52.65;99561.69;5008904;28;20637;-69
2021/03/02 10:54:20;;;;;;;12.00;10.37;;;;;;;10.05;51.45;99562.28;5010602;28;20214;-69
2021/03/02 10:56:48;;;;;;;14.00;10.23;;;;;;;10.33;49.85;99552.09;5002638;28;20271;-69
2021/03/02 10:59:15;;;;;;;11.67;10.47;;;;;;;10.18;50.18;99553.34;5009937;28;20212;-70
2021/03/02 11:01:42;;;;;;;12.80;9.53;;;;;;;10.41;49.71;99547.06;5008796;28;20235;-69
2021/03/02 11:04:10;;;;;;;14.07;9.73;;;;;;;10.66;48.68;99552.19;5007030;28;20592;-70
2021/03/02 11:06:37;;;;;;;12.33;9.63;;;;;;;10.56;49.15;99547.59;5009052;28;20224;-70
2021/03/02 11:09:04;;;;;;;10.60;9.07;;;;;;;10.36;49.04;99543.91;5006310;28;20232;-71
2021/03/02 11:11:32;;;;;;;11.37;10.17;;;;;;;10.39;49.82;99540.19;5010216;28;20224;-71
2021/03/02 11:14:00;;;;;;;10.37;9.37;;;;;;;10.68;48.48;99527.22;5002064;28;20201;-69
2021/03/02 11:16:27;;;;;;;11.83;10.57;;;;;;;10.53;49.83;99539.91;5003102;28;20232;-70
2021/03/02 11:18:54;;;;;;;9.50;8.03;;;;;;;10.99;46.17;99535.25;5008341;28;20212;-72
2021/03/02 11:21:22;;;;;;;9.80;8.90;;;;;;;11.18;45.20;99539.03;5004654;28;20260;-69
2021/03/02 11:23:49;;;;;;;10.43;8.53;;;;;;;11.04;46.23;99528.72;5000104;28;20220;-71
2021/03/02 11:26:16;;;;;;;10.33;9.10;;;;;;;11.12;45.97;99531.56;5003039;28;20227;-70